Time;durP1;ratioP1;P1;durP2;ratioP2;P2;SDS_P1;SDS_P2;PMS_P1;PMS_P2;Temp;Humidity;BMP_temperature;BMP_pressure;BME280_temperature;BME280_humidity;BME280_pressure;Samples;Min_cycle;Max_cycle;Signal;HPM_P1;HPM_P2
2023/03/28 00:00:37;;;;;;;2.45;2.03;;;;;;;;;;5053626;28;20025;-61
2023/03/28 00:03:03;;;;;;;2.35;2.15;;;;;;;;;;5052554;28;20025;-60
2023/03/28 00:05:30;;;;;;;2.92;2.38;;;;;;;;;;5052409;28;20403;-66
2023/03/28 00:07:56;;;;;;;3.08;2.28;;;;;;;;;;5052871;28;20067;-62
2023/03/28 00:10:22;;;;;;;2.47;2.00;;;;;;;;;;5053109;28;20078;-66
2023/03/28 00:12:47;;;;;;;2.33;1.80;;;;;;;;;;5053376;28;20021;-65
2023/03/28 00:15:14;;;;;;;3.05;2.13;;;;;;;;;;5050923;28;20055;-66
2023/03/28 00:17:40;;;;;;;2.60;2.22;;;;;;;;;;5048795;28;20029;-67
2023/03/28 00:20:09;;;;;;;2.10;1.90;;;;;;;;;;5042804;28;20523;-62
2023/03/28 00:22:36;;;;;;;2.20;2.10;;;;;;;;;;5048914;28;20476;-67
2023/03/28 00:25:07;;;;;;;2.28;1.98;;;;;;;;;;5042311;28;20498;-66
2023/03/28 00:27:34;;;;;;;2.17;1.95;;;;;;;;;;5047681;28;20025;-65
2023/03/28 00:30:01;;;;;;;2.13;2.00;;;;;;;;;;5043971;28;20079;-65
2023/03/28 00:32:27;;;;;;;2.53;2.15;;;;;;;;;;5042926;28;20017;-66
2023/03/28 00:34:52;;;;;;;2.10;2.00;;;;;;;;;;5045483;28;20033;-65
2023/03/28 00:37:18;;;;;;;2.17;1.98;;;;;;;;;;5043107;28;20458;-63
2023/03/28 00:39:53;;;;;;;2.47;2.20;;;;;;;;;;5046536;28;20124;-65
2023/03/28 00:42:22;;;;;;;1.90;1.80;;;;;;;;;;5043582;28;20024;-66
2023/03/28 00:44:55;;;;;;;2.35;1.80;;;;;;;;;;5044080;28;20048;-65
2023/03/28 00:47:40;;;;;;;2.20;2.00;;;;;;;;;;5053148;28;20653;-66
2023/03/28 00:50:23;;;;;;;2.05;1.85;;;;;;;;;;5064733;28;20472;-67
2023/03/28 00:52:57;;;;;;;2.30;2.10;;;;;;;;;;5086428;28;20024;-60
2023/03/28 00:55:49;;;;;;;2.47;2.13;;;;;;;;;;5067661;28;20492;-66
2023/03/28 00:58:23;;;;;;;2.78;1.90;;;;;;;;;;5069201;28;20043;-66
2023/03/28 01:00:53;;;;;;;2.20;2.00;;;;;;;;;;5072050;28;20056;-66
2023/03/28 01:03:21;;;;;;;2.13;1.92;;;;;;;;;;5071527;28;20507;-66
2023/03/28 01:05:48;;;;;;;2.15;1.95;;;;;;;;;;5071909;28;20086;-66
2023/03/28 01:08:18;;;;;;;1.98;1.88;;;;;;;;;;5072081;28;20024;-65
2023/03/28 01:10:44;;;;;;;2.47;2.15;;;;;;;;;;5071699;28;20020;-67
2023/03/28 01:13:13;;;;;;;2.70;2.08;;;;;;;;;;5072282;28;20047;-65
2023/03/28 01:15:39;;;;;;;2.45;2.25;;;;;;;;;;5072215;28;20037;-67
2023/03/28 01:18:10;;;;;;;2.22;2.03;;;;;;;;;;5072548;28;20566;-66
2023/03/28 01:20:41;;;;;;;;;;;;;;;;;;5067620;28;20033;-59
2023/03/28 01:23:25;;;;;;;3.10;2.10;;;;;;;;;;5067449;28;19919;-60
2023/03/28 01:26:12;;;;;;;2.20;2.00;;;;;;;;;;5067243;28;20040;-63
2023/03/28 01:29:16;;;;;;;2.20;2.00;;;;;;;;;;5065873;28;20056;-65
2023/03/28 01:32:03;;;;;;;2.35;2.10;;;;;;;;;;5066764;28;20059;-59
2023/03/28 01:34:42;;;;;;;2.00;1.90;;;;;;;;;;5066265;28;20024;-59
2023/03/28 01:37:22;;;;;;;2.75;2.00;;;;;;;;;;5067130;28;20059;-59
2023/03/28 01:40:21;;;;;;;2.35;2.17;;;;;;;;;;5069773;28;20032;-60
2023/03/28 01:43:15;;;;;;;2.35;2.10;;;;;;;;;;5071057;28;20515;-63
2023/03/28 01:45:41;;;;;;;2.95;1.80;;;;;;;;;;5070586;28;20037;-62
2023/03/28 01:48:34;;;;;;;2.60;2.28;;;;;;;;;;5070104;28;20048;-60
2023/03/28 01:51:30;;;;;;;2.67;1.98;;;;;;;;;;5071480;28;20048;-63
2023/03/28 01:54:02;;;;;;;1.90;1.80;;;;;;;;;;5070137;28;20032;-61
2023/03/28 01:56:36;;;;;;;3.22;2.00;;;;;;;;;;5071046;28;20551;-61
2023/03/28 01:59:16;;;;;;;2.13;1.90;;;;;;;;;;5070985;28;20032;-65
2023/03/28 02:01:48;;;;;;;2.17;2.00;;;;;;;;;;5069978;28;20024;-58
2023/03/28 02:04:19;;;;;;;2.22;2.00;;;;;;;;;;5073921;28;20052;-63
2023/03/28 02:06:46;;;;;;;2.45;2.05;;;;;;;;;;5073634;28;20059;-65
2023/03/28 02:09:14;;;;;;;1.90;1.80;;;;;;;;;;5074712;28;20043;-59
2023/03/28 02:11:41;;;;;;;2.00;1.90;;;;;;;;;;5075492;28;20020;-62
2023/03/28 02:14:13;;;;;;;2.25;2.05;;;;;;;;;;5074036;28;20542;-65
2023/03/28 02:16:40;;;;;;;2.08;1.98;;;;;;;;;;5074691;28;20043;-59
2023/03/28 02:19:08;;;;;;;1.90;1.80;;;;;;;;;;5074008;28;20063;-61
2023/03/28 02:21:42;;;;;;;2.13;1.80;;;;;;;;;;5075334;28;20032;-65
2023/03/28 02:24:11;;;;;;;4.72;2.05;;;;;;;;;;5075256;28;20024;-63
2023/03/28 02:26:37;;;;;;;2.65;2.10;;;;;;;;;;5075258;28;20499;-65
2023/03/28 02:29:03;;;;;;;1.95;1.85;;;;;;;;;;5075385;28;20044;-65
2023/03/28 02:31:31;;;;;;;2.60;2.10;;;;;;;;;;5075202;28;20173;-58
2023/03/28 02:33:57;;;;;;;4.20;2.10;;;;;;;;;;5075063;28;20494;-66
2023/03/28 02:36:32;;;;;;;2.22;2.03;;;;;;;;;;5075021;28;20112;-64
2023/03/28 02:39:40;;;;;;;2.58;2.08;;;;;;;;;;5073904;28;20055;-59
2023/03/28 02:42:37;;;;;;;1.65;1.55;;;;;;;;;;4993297;28;20030;-59
2023/03/28 02:45:41;;;;;;;2.55;1.90;;;;;;;;;;5074791;28;20028;-65
2023/03/28 02:48:24;;;;;;;1.90;1.70;;;;;;;;;;5002166;28;20042;-58
2023/03/28 02:51:07;;;;;;;2.05;1.90;;;;;;;;;;5074814;28;20028;-66
2023/03/28 02:54:04;;;;;;;2.20;1.90;;;;;;;;;;5074727;28;20372;-58
2023/03/28 02:57:00;;;;;;;2.25;2.00;;;;;;;;;;5074659;28;20032;-58
2023/03/28 02:59:53;;;;;;;2.00;1.90;;;;;;;;;;5074437;28;20040;-59
2023/03/28 03:02:20;;;;;;;1.80;1.70;;;;;;;;;;5074574;28;20024;-59
2023/03/28 03:04:49;;;;;;;2.05;1.83;;;;;;;;;;5074629;28;20028;-60
2023/03/28 03:07:17;;;;;;;2.00;1.80;;;;;;;;;;5074440;28;20029;-65
2023/03/28 03:09:44;;;;;;;2.10;1.90;;;;;;;;;;5074749;28;20074;-58
2023/03/28 03:12:11;;;;;;;2.00;1.90;;;;;;;;;;5074295;28;20537;-59
2023/03/28 03:14:37;;;;;;;2.47;1.95;;;;;;;;;;5074224;28;20020;-63
2023/03/28 03:17:04;;;;;;;2.40;2.20;;;;;;;;;;5074531;28;20044;-58
2023/03/28 03:19:31;;;;;;;3.67;2.10;;;;;;;;;;5074144;28;20062;-63
2023/03/28 03:21:57;;;;;;;2.47;2.28;;;;;;;;;;5074106;28;20029;-58
2023/03/28 03:24:23;;;;;;;2.45;2.00;;;;;;;;;;5074114;28;20021;-60
2023/03/28 03:26:50;;;;;;;2.00;1.80;;;;;;;;;;5074253;28;20033;-66
2023/03/28 03:29:16;;;;;;;2.40;2.20;;;;;;;;;;5074044;28;20033;-65
2023/03/28 03:31:41;;;;;;;1.85;1.75;;;;;;;;;;5073908;28;20033;-59
2023/03/28 03:34:07;;;;;;;2.22;2.03;;;;;;;;;;5073851;28;20043;-66
2023/03/28 03:36:33;;;;;;;2.13;1.92;;;;;;;;;;5073811;28;20028;-58
2023/03/28 03:38:58;;;;;;;2.40;2.10;;;;;;;;;;5074007;28;20041;-58
2023/03/28 03:41:24;;;;;;;4.05;2.10;;;;;;;;;;5073700;28;20024;-64
2023/03/28 03:43:50;;;;;;;2.15;1.98;;;;;;;;;;5074004;28;20025;-59
2023/03/28 03:46:16;;;;;;;2.58;2.00;;;;;;;;;;5073429;28;20487;-59
2023/03/28 03:48:41;;;;;;;2.65;2.05;;;;;;;;;;5073667;28;20037;-58
2023/03/28 03:51:07;;;;;;;2.33;1.92;;;;;;;;;;5073836;28;20029;-62
2023/03/28 03:53:34;;;;;;;2.30;2.10;;;;;;;;;;5073503;28;20127;-66
2023/03/28 03:56:00;;;;;;;2.47;2.17;;;;;;;;;;5073445;28;20020;-63
2023/03/28 03:58:26;;;;;;;1.95;1.80;;;;;;;;;;5073659;28;20024;-59
2023/03/28 04:00:52;;;;;;;2.33;2.13;;;;;;;;;;5073482;28;20380;-64
2023/03/28 04:03:18;;;;;;;2.13;1.92;;;;;;;;;;5073325;28;20469;-60
2023/03/28 04:05:43;;;;;;;2.05;1.92;;;;;;;;;;5073221;28;20020;-58
2023/03/28 04:08:09;;;;;;;2.10;1.90;;;;;;;;;;5073509;28;20238;-60
2023/03/28 04:10:35;;;;;;;2.40;2.00;;;;;;;;;;5073512;28;20383;-62
2023/03/28 04:13:00;;;;;;;2.33;2.00;;;;;;;;;;5073170;28;20025;-61
2023/03/28 04:15:26;;;;;;;2.33;1.90;;;;;;;;;;5073118;28;20036;-58
2023/03/28 04:17:55;;;;;;;2.17;2.03;;;;;;;;;;5073500;28;20028;-59
2023/03/28 04:20:24;;;;;;;2.10;1.90;;;;;;;;;;5072854;28;20028;-59
2023/03/28 04:22:52;;;;;;;1.90;1.80;;;;;;;;;;5073274;28;20083;-64
2023/03/28 04:25:20;;;;;;;2.47;1.92;;;;;;;;;;5073198;28;20021;-59
2023/03/28 04:27:46;;;;;;;2.45;1.80;;;;;;;;;;5072869;28;20029;-59
2023/03/28 04:30:16;;;;;;;2.10;1.85;;;;;;;;;;5072705;28;20028;-58
2023/03/28 04:32:43;;;;;;;1.98;1.80;;;;;;;;;;5072751;28;20024;-59
2023/03/28 04:35:11;;;;;;;2.10;1.90;;;;;;;;;;5072664;28;20487;-58
2023/03/28 04:37:37;;;;;;;2.20;2.00;;;;;;;;;;5072650;28;20046;-59
2023/03/28 04:40:15;;;;;;;1.83;1.73;;;;;;;;;;5072483;28;20052;-58
2023/03/28 04:42:41;;;;;;;2.80;2.08;;;;;;;;;;5072673;28;20024;-59
2023/03/28 04:45:07;;;;;;;2.00;1.90;;;;;;;;;;5071328;28;20025;-58
2023/03/28 04:47:36;;;;;;;2.00;1.90;;;;;;;;;;5072413;28;20359;-58
2023/03/28 04:50:02;;;;;;;2.28;2.00;;;;;;;;;;5072355;28;20036;-58
2023/03/28 04:52:28;;;;;;;2.20;1.90;;;;;;;;;;5072824;28;20032;-58
2023/03/28 04:54:54;;;;;;;2.20;2.00;;;;;;;;;;5072483;28;20369;-59
2023/03/28 04:57:19;;;;;;;2.28;2.08;;;;;;;;;;5072444;28;20380;-63
2023/03/28 04:59:45;;;;;;;2.30;1.95;;;;;;;;;;5072263;28;20044;-60
2023/03/28 05:02:10;;;;;;;2.45;2.17;;;;;;;;;;5072383;28;20061;-59
2023/03/28 05:04:36;;;;;;;2.17;2.00;;;;;;;;;;5072264;28;20119;-59
2023/03/28 05:07:03;;;;;;;2.20;2.10;;;;;;;;;;5072600;28;20052;-59
2023/03/28 05:09:29;;;;;;;2.17;1.98;;;;;;;;;;5072278;28;20052;-59
2023/03/28 05:11:55;;;;;;;2.22;2.05;;;;;;;;;;5072046;28;20047;-58
2023/03/28 05:14:21;;;;;;;2.20;1.90;;;;;;;;;;5071968;28;20460;-58
2023/03/28 05:16:46;;;;;;;2.13;1.90;;;;;;;;;;5072479;28;20032;-59
2023/03/28 05:19:12;;;;;;;2.13;1.90;;;;;;;;;;5072022;28;20494;-58
2023/03/28 05:21:39;;;;;;;1.90;1.80;;;;;;;;;;5072180;28;20483;-58
2023/03/28 05:24:07;;;;;;;2.35;2.13;;;;;;;;;;5069663;28;20161;-58
2023/03/28 05:26:33;;;;;;;2.53;2.13;;;;;;;;;;5055204;28;20061;-58
2023/03/28 05:28:59;;;;;;;2.80;2.20;;;;;;;;;;5058807;28;20032;-58
2023/03/28 05:31:27;;;;;;;2.60;2.00;;;;;;;;;;5068599;28;20035;-59
2023/03/28 05:33:54;;;;;;;2.30;2.10;;;;;;;;;;5070299;28;20020;-57
2023/03/28 05:36:19;;;;;;;2.33;2.13;;;;;;;;;;5069088;28;20028;-59
2023/03/28 05:38:45;;;;;;;3.67;2.10;;;;;;;;;;5070078;28;20500;-59
2023/03/28 05:41:11;;;;;;;3.10;2.20;;;;;;;;;;5070310;28;20116;-62
2023/03/28 05:43:36;;;;;;;2.50;2.03;;;;;;;;;;5068753;28;20037;-58
2023/03/28 05:46:02;;;;;;;3.15;1.90;;;;;;;;;;5070044;28;20040;-65
2023/03/28 05:48:28;;;;;;;2.58;2.17;;;;;;;;;;5064682;28;20089;-63
2023/03/28 05:50:53;;;;;;;2.63;2.10;;;;;;;;;;5057963;28;20033;-58
2023/03/28 05:53:19;;;;;;;2.63;2.00;;;;;;;;;;5048412;28;20405;-59
2023/03/28 05:55:44;;;;;;;2.10;2.00;;;;;;;;;;5049447;28;20041;-58
2023/03/28 05:58:10;;;;;;;2.15;1.85;;;;;;;;;;5048960;28;20021;-59
2023/03/28 06:00:36;;;;;;;2.17;1.98;;;;;;;;;;5050153;28;20064;-58
2023/03/28 06:03:02;;;;;;;2.30;2.10;;;;;;;;;;5050232;28;20029;-58
2023/03/28 06:05:28;;;;;;;2.38;2.17;;;;;;;;;;5050242;28;20469;-58
2023/03/28 06:07:54;;;;;;;2.33;1.95;;;;;;;;;;5048614;28;20472;-59
2023/03/28 06:10:21;;;;;;;2.38;2.17;;;;;;;;;;5048737;28;20041;-58
2023/03/28 06:12:47;;;;;;;2.25;1.92;;;;;;;;;;5048478;28;20033;-58
2023/03/28 06:15:13;;;;;;;2.40;2.20;;;;;;;;;;5048616;28;20434;-58
2023/03/28 06:17:39;;;;;;;2.42;2.10;;;;;;;;;;5049873;28;20021;-65
2023/03/28 06:20:06;;;;;;;2.17;1.98;;;;;;;;;;5049746;28;20033;-58
2023/03/28 06:22:32;;;;;;;1.90;1.80;;;;;;;;;;5049839;28;20029;-58
2023/03/28 06:24:57;;;;;;;2.25;2.05;;;;;;;;;;5052213;28;20047;-59
2023/03/28 06:27:23;;;;;;;2.50;2.30;;;;;;;;;;5053783;28;20017;-59
2023/03/28 06:29:49;;;;;;;2.72;2.20;;;;;;;;;;5053338;28;20028;-59
2023/03/28 06:32:16;;;;;;;2.45;2.25;;;;;;;;;;5053684;28;20120;-60
2023/03/28 06:34:42;;;;;;;2.80;2.08;;;;;;;;;;5052098;28;20052;-58
2023/03/28 06:37:08;;;;;;;2.45;2.25;;;;;;;;;;5053593;28;20468;-59
2023/03/28 06:39:33;;;;;;;2.60;2.10;;;;;;;;;;5053370;28;20059;-58
2023/03/28 06:42:02;;;;;;;2.35;2.10;;;;;;;;;;5051741;28;20477;-58
2023/03/28 06:44:28;;;;;;;2.40;2.20;;;;;;;;;;5053220;28;20501;-60
2023/03/28 06:46:54;;;;;;;1.92;1.83;;;;;;;;;;5052578;28;20128;-59
2023/03/28 06:49:20;;;;;;;2.30;2.10;;;;;;;;;;5052981;28;20602;-58
2023/03/28 06:51:46;;;;;;;2.50;1.92;;;;;;;;;;5052965;28;20025;-59
2023/03/28 06:54:11;;;;;;;2.22;2.03;;;;;;;;;;5053011;28;20127;-59
2023/03/28 06:56:37;;;;;;;2.10;1.90;;;;;;;;;;5051475;28;20117;-59
2023/03/28 06:59:02;;;;;;;2.13;1.92;;;;;;;;;;5051339;28;20079;-59
2023/03/28 07:01:28;;;;;;;2.20;2.00;;;;;;;;;;5052534;28;20107;-59
2023/03/28 07:03:54;;;;;;;2.28;2.03;;;;;;;;;;5053060;28;20033;-59
2023/03/28 07:06:19;;;;;;;2.33;2.13;;;;;;;;;;5052740;28;20041;-59
2023/03/28 07:08:45;;;;;;;2.00;1.90;;;;;;;;;;5052318;28;20037;-59
2023/03/28 07:11:10;;;;;;;1.90;1.80;;;;;;;;;;5052701;28;20028;-62
2023/03/28 07:13:36;;;;;;;2.10;2.00;;;;;;;;;;5055732;28;20028;-60
2023/03/28 07:16:07;;;;;;;2.50;2.00;;;;;;;;;;5071342;28;20039;-63
2023/03/28 07:18:33;;;;;;;2.67;2.00;;;;;;;;;;5070216;28;20069;-60
2023/03/28 07:21:04;;;;;;;2.00;1.90;;;;;;;;;;5072076;28;20415;-65
2023/03/28 07:23:30;;;;;;;2.55;2.10;;;;;;;;;;5072168;28;20024;-60
2023/03/28 07:25:55;;;;;;;2.20;2.00;;;;;;;;;;5072254;28;20039;-62
2023/03/28 07:28:23;;;;;;;4.38;2.10;;;;;;;;;;5072058;28;20032;-62
2023/03/28 07:30:48;;;;;;;3.13;2.05;;;;;;;;;;5072342;28;20033;-59
2023/03/28 07:33:14;;;;;;;2.15;1.98;;;;;;;;;;5072165;28;20507;-59
2023/03/28 07:35:40;;;;;;;2.10;1.73;;;;;;;;;;5071542;28;20028;-59
2023/03/28 07:38:06;;;;;;;2.30;2.05;;;;;;;;;;5070612;28;20499;-66
2023/03/28 07:40:32;;;;;;;2.10;1.90;;;;;;;;;;5071919;28;20020;-59
2023/03/28 07:42:58;;;;;;;3.30;2.20;;;;;;;;;;5070057;28;20388;-61
2023/03/28 07:45:23;;;;;;;2.53;1.95;;;;;;;;;;5071794;28;20105;-60
2023/03/28 07:47:52;;;;;;;2.13;1.83;;;;;;;;;;5070211;28;20048;-59
2023/03/28 07:50:18;;;;;;;3.47;1.90;;;;;;;;;;5073222;28;20055;-59
2023/03/28 07:52:45;;;;;;;3.15;1.88;;;;;;;;;;5071633;28;20020;-59
2023/03/28 07:55:12;;;;;;;2.70;1.90;;;;;;;;;;5072001;28;20040;-66
2023/03/28 07:57:38;;;;;;;2.05;1.80;;;;;;;;;;5071595;28;20467;-61
2023/03/28 08:00:11;;;;;;;2.63;1.80;;;;;;;;;;5069589;28;20029;-59
2023/03/28 08:02:40;;;;;;;1.88;1.77;;;;;;;;;;5070306;28;20500;-59
2023/03/28 08:05:06;;;;;;;2.15;1.95;;;;;;;;;;5071525;28;20029;-59
2023/03/28 08:07:33;;;;;;;2.13;1.88;;;;;;;;;;5071359;28;20036;-59
2023/03/28 08:09:59;;;;;;;2.22;2.00;;;;;;;;;;5071587;28;20387;-59
2023/03/28 08:12:25;;;;;;;1.90;1.70;;;;;;;;;;5068183;28;20020;-65
2023/03/28 08:14:51;;;;;;;2.40;1.90;;;;;;;;;;5070720;28;20075;-62
2023/03/28 08:17:17;;;;;;;2.00;1.80;;;;;;;;;;5069200;28;20032;-60
2023/03/28 08:19:43;;;;;;;3.38;2.30;;;;;;;;;;5067414;28;20056;-59
2023/03/28 08:22:09;;;;;;;2.10;1.90;;;;;;;;;;5063603;28;20070;-58
2023/03/28 08:24:35;;;;;;;1.95;1.73;;;;;;;;;;5061394;28;20555;-59
2023/03/28 08:27:00;;;;;;;1.95;1.80;;;;;;;;;;5060365;28;20111;-59
2023/03/28 08:29:26;;;;;;;1.77;1.67;;;;;;;;;;5063755;28;20009;-59
2023/03/28 08:31:51;;;;;;;2.25;1.75;;;;;;;;;;5060835;28;20043;-59
2023/03/28 08:34:17;;;;;;;2.30;1.80;;;;;;;;;;5061231;28;20219;-61
2023/03/28 08:36:46;;;;;;;3.20;1.83;;;;;;;;;;5065411;28;20025;-59
2023/03/28 08:39:12;;;;;;;2.42;1.98;;;;;;;;;;5061969;28;20029;-60
2023/03/28 08:42:20;;;;;;;2.20;1.90;;;;;;;;;;5060700;28;20020;-62
2023/03/28 08:45:08;;;;;;;2.47;1.73;;;;;;;;;;5042830;28;20040;-59
2023/03/28 08:48:15;;;;;;;2.53;1.60;;;;;;;;;;5049589;28;20554;-59
2023/03/28 08:50:46;;;;;;;3.22;2.17;;;;;;;;;;5051042;28;20105;-58
2023/03/28 08:53:20;;;;;;;1.83;1.73;;;;;;;;;;5050875;28;20045;-59
2023/03/28 08:55:47;;;;;;;1.70;1.60;;;;;;;;;;5049162;28;20062;-59
2023/03/28 08:58:22;;;;;;;1.70;1.55;;;;;;;;;;5049641;28;20349;-59
2023/03/28 09:00:49;;;;;;;2.95;1.65;;;;;;;;;;5050582;28;20044;-59
2023/03/28 09:03:20;;;;;;;2.75;1.85;;;;;;;;;;5050697;28;20100;-59
2023/03/28 09:05:55;;;;;;;1.67;1.58;;;;;;;;;;5050492;28;20025;-59
2023/03/28 09:08:43;;;;;;;3.17;1.75;;;;;;;;;;5050720;28;20075;-59
2023/03/28 09:11:33;;;;;;;1.77;1.60;;;;;;;;;;5050767;28;20403;-61
2023/03/28 09:14:33;;;;;;;2.47;1.80;;;;;;;;;;5050522;28;20029;-59
2023/03/28 09:17:15;;;;;;;2.13;1.80;;;;;;;;;;5047237;28;20056;-60
2023/03/28 09:20:10;;;;;;;3.33;1.70;;;;;;;;;;5050832;28;21003;-59
2023/03/28 09:22:57;;;;;;;1.90;1.70;;;;;;;;;;5050525;28;20033;-59
2023/03/28 09:25:31;;;;;;;15.55;2.38;;;;;;;;;;5050787;28;20041;-61
2023/03/28 09:28:29;;;;;;;6.68;1.70;;;;;;;;;;5050807;28;20419;-59
2023/03/28 09:30:56;;;;;;;1.73;1.60;;;;;;;;;;5050495;28;20033;-60
2023/03/28 09:33:36;;;;;;;7.53;2.22;;;;;;;;;;5050424;28;20157;-59
2023/03/28 09:36:09;;;;;;;5.72;1.60;;;;;;;;;;5072781;28;20043;-67
2023/03/28 09:38:40;;;;;;;1.77;1.67;;;;;;;;;;5071144;28;20357;-60
2023/03/28 09:41:15;;;;;;;1.95;1.75;;;;;;;;;;5070595;28;20028;-64
2023/03/28 09:43:54;;;;;;;1.67;1.58;;;;;;;;;;5069810;28;20032;-61
2023/03/28 09:46:35;;;;;;;3.53;1.70;;;;;;;;;;5070108;28;20039;-60
2023/03/28 09:49:01;;;;;;;1.90;1.70;;;;;;;;;;5070402;28;20157;-60
2023/03/28 09:51:26;;;;;;;3.17;1.70;;;;;;;;;;5070414;28;20020;-60
2023/03/28 09:53:52;;;;;;;1.85;1.67;;;;;;;;;;5070335;28;20028;-61
2023/03/28 09:56:47;;;;;;;2.00;1.60;;;;;;;;;;5083823;28;20043;-60
2023/03/28 09:59:26;;;;;;;2.00;1.80;;;;;;;;;;5059374;28;20106;-62
2023/03/28 10:01:53;;;;;;;2.33;1.88;;;;;;;;;;5073954;28;20067;-60
2023/03/28 10:04:31;;;;;;;3.78;1.90;;;;;;;;;;5073873;28;20031;-60
2023/03/28 10:07:09;;;;;;;1.83;1.73;;;;;;;;;;5073671;28;20451;-60
2023/03/28 10:09:47;;;;;;;2.25;1.80;;;;;;;;;;5064558;28;20028;-60
2023/03/28 10:12:19;;;;;;;2.22;1.70;;;;;;;;;;5064210;28;20029;-60
2023/03/28 10:14:47;;;;;;;1.90;1.70;;;;;;;;;;5064326;28;20025;-62
2023/03/28 10:17:20;;;;;;;1.63;1.45;;;;;;;;;;5063195;28;20033;-66
2023/03/28 10:19:47;;;;;;;2.75;1.55;;;;;;;;;;5073649;28;20043;-59
2023/03/28 10:22:25;;;;;;;2.70;1.60;;;;;;;;;;5076075;28;20039;-59
2023/03/28 10:24:51;;;;;;;2.08;1.88;;;;;;;;;;5084997;28;20506;-59
2023/03/28 10:27:30;;;;;;;2.47;1.50;;;;;;;;;;5072128;28;20029;-62
2023/03/28 10:29:57;;;;;;;2.75;1.77;;;;;;;;;;5073433;28;20025;-59
2023/03/28 10:32:27;;;;;;;2.85;1.58;;;;;;;;;;5073453;28;20036;-59
2023/03/28 10:35:07;;;;;;;1.42;1.33;;;;;;;;;;5073698;28;20028;-59
2023/03/28 10:37:33;;;;;;;2.30;1.67;;;;;;;;;;5073319;28;20067;-59
2023/03/28 10:40:23;;;;;;;2.55;1.65;;;;;;;;;;5066155;28;20068;-68
2023/03/28 10:42:50;;;;;;;2.90;1.70;;;;;;;;;;5053336;28;20029;-65
2023/03/28 10:45:32;;;;;;;4.38;1.70;;;;;;;;;;5058755;28;20032;-60
2023/03/28 10:48:01;;;;;;;3.03;1.50;;;;;;;;;;5070891;28;20044;-59
2023/03/28 10:50:43;;;;;;;2.08;1.60;;;;;;;;;;5072928;28;20032;-61
2023/03/28 10:53:41;;;;;;;3.50;1.55;;;;;;;;;;5073137;28;20029;-59
2023/03/28 10:56:17;;;;;;;1.98;1.60;;;;;;;;;;5071762;28;20166;-60
2023/03/28 10:59:08;;;;;;;2.03;1.65;;;;;;;;;;5073194;28;20162;-68
2023/03/28 11:02:07;;;;;;;2.88;1.48;;;;;;;;;;5072851;28;20025;-61
2023/03/28 11:04:52;;;;;;;1.45;1.35;;;;;;;;;;5068005;28;20028;-60
2023/03/28 11:07:26;;;;;;;2.08;1.70;;;;;;;;;;5063357;28;20034;-59
2023/03/28 11:10:01;;;;;;;2.97;1.67;;;;;;;;;;5062534;28;20378;-59
2023/03/28 11:12:47;;;;;;;1.85;1.60;;;;;;;;;;5063289;28;20546;-59
2023/03/28 11:15:25;;;;;;;1.73;1.60;;;;;;;;;;5065098;28;20103;-60
2023/03/28 11:18:07;;;;;;;2.28;1.50;;;;;;;;;;5061548;28;20058;-59
2023/03/28 11:20:51;;;;;;;1.77;1.42;;;;;;;;;;5052806;28;20049;-59
2023/03/28 11:23:24;;;;;;;6.78;2.28;;;;;;;;;;5052366;28;20059;-59
2023/03/28 11:26:03;;;;;;;2.88;1.55;;;;;;;;;;5051124;28;20032;-59
2023/03/28 11:28:48;;;;;;;2.05;1.65;;;;;;;;;;5053980;28;20412;-59
2023/03/28 11:31:19;;;;;;;2.45;1.50;;;;;;;;;;5068461;28;20069;-59
2023/03/28 11:34:17;;;;;;;4.43;1.80;;;;;;;;;;5071459;28;20033;-63
2023/03/28 11:36:57;;;;;;;4.18;1.80;;;;;;;;;;5052637;28;20045;-59
2023/03/28 11:39:41;;;;;;;3.58;1.75;;;;;;;;;;5052101;28;20028;-62
2023/03/28 11:42:13;;;;;;;3.17;1.73;;;;;;;;;;5057265;28;20052;-64
2023/03/28 11:45:04;;;;;;;3.78;1.77;;;;;;;;;;5057578;28;20724;-60
2023/03/28 11:47:35;;;;;;;4.28;1.50;;;;;;;;;;5057558;28;20053;-59
2023/03/28 11:50:13;;;;;;;5.50;1.92;;;;;;;;;;5054582;28;20029;-68
2023/03/28 11:52:56;;;;;;;3.42;1.60;;;;;;;;;;5066074;28;20506;-59
2023/03/28 11:55:30;;;;;;;3.05;1.70;;;;;;;;;;5071469;28;20063;-61
2023/03/28 11:58:09;;;;;;;2.55;1.90;;;;;;;;;;5068909;28;20028;-65
2023/03/28 12:00:46;;;;;;;4.25;1.60;;;;;;;;;;5070306;28;20028;-60
2023/03/28 12:03:20;;;;;;;2.88;1.80;;;;;;;;;;5060692;28;20025;-67
2023/03/28 12:05:50;;;;;;;3.42;1.70;;;;;;;;;;5071636;28;20066;-67
2023/03/28 12:08:34;;;;;;;2.40;1.60;;;;;;;;;;5071641;28;20025;-66
2023/03/28 12:11:24;;;;;;;1.77;1.58;;;;;;;;;;5071583;28;20496;-66
2023/03/28 12:13:53;;;;;;;2.67;1.52;;;;;;;;;;5059614;28;20040;-65
2023/03/28 12:16:29;;;;;;;5.30;2.57;;;;;;;;;;5054087;28;20040;-60
2023/03/28 12:19:00;;;;;;;3.45;1.52;;;;;;;;;;5049969;28;20335;-62
2023/03/28 12:21:55;;;;;;;4.90;1.65;;;;;;;;;;5056650;28;20487;-61
2023/03/28 12:24:28;;;;;;;2.30;1.70;;;;;;;;;;5070871;28;20024;-59
2023/03/28 12:27:03;;;;;;;7.60;2.33;;;;;;;;;;5069900;28;20483;-60
2023/03/28 12:29:55;;;;;;;4.65;1.90;;;;;;;;;;5071429;28;20037;-58
2023/03/28 12:32:48;;;;;;;3.85;1.90;;;;;;;;;;5071337;28;20103;-58
2023/03/28 12:35:51;;;;;;;3.22;1.67;;;;;;;;;;5071344;28;20086;-60
2023/03/28 12:38:31;;;;;;;3.53;1.90;;;;;;;;;;5071038;28;20440;-59
2023/03/28 12:41:05;;;;;;;5.10;2.13;;;;;;;;;;5071096;28;20384;-59
2023/03/28 12:43:53;;;;;;;2.47;1.80;;;;;;;;;;5061305;28;20032;-59
2023/03/28 12:46:29;;;;;;;3.47;1.70;;;;;;;;;;5063477;28;20104;-59
2023/03/28 12:49:02;;;;;;;5.05;1.95;;;;;;;;;;5067753;28;20496;-68
2023/03/28 12:51:37;;;;;;;3.90;1.70;;;;;;;;;;5059400;28;20390;-65
2023/03/28 12:54:22;;;;;;;3.08;1.77;;;;;;;;;;5052264;28;20600;-58
2023/03/28 12:57:03;;;;;;;2.25;1.90;;;;;;;;;;5050993;28;20033;-59
2023/03/28 12:59:37;;;;;;;3.30;1.88;;;;;;;;;;5050965;28;20037;-60
2023/03/28 13:02:16;;;;;;;2.13;1.92;;;;;;;;;;5050946;28;20375;-60
2023/03/28 13:05:10;;;;;;;3.15;1.83;;;;;;;;;;5049311;28;20029;-60
2023/03/28 13:07:56;;;;;;;3.95;2.10;;;;;;;;;;5038626;28;20504;-60
2023/03/28 13:10:37;;;;;;;2.97;2.10;;;;;;;;;;5050834;28;20052;-66
2023/03/28 13:13:19;;;;;;;1.73;1.63;;;;;;;;;;5050512;28;20041;-67
2023/03/28 13:15:55;;;;;;;2.17;1.98;;;;;;;;;;5050765;28;20098;-66
2023/03/28 13:18:26;;;;;;;2.25;1.70;;;;;;;;;;5050406;28;20042;-58
2023/03/28 13:20:52;;;;;;;2.40;2.08;;;;;;;;;;5053726;28;20068;-59
2023/03/28 13:23:30;;;;;;;9.85;2.10;;;;;;;;;;5089910;28;20114;-65
2023/03/28 13:26:01;;;;;;;1.85;1.63;;;;;;;;;;5090616;28;20035;-67
2023/03/28 13:28:38;;;;;;;4.78;2.20;;;;;;;;;;5090709;28;20037;-63
2023/03/28 13:31:10;;;;;;;4.28;2.10;;;;;;;;;;5090751;28;20088;-67
2023/03/28 13:33:42;;;;;;;2.00;1.80;;;;;;;;;;5091748;28;20031;-67
2023/03/28 13:36:08;;;;;;;2.35;1.70;;;;;;;;;;5093503;28;20383;-68
2023/03/28 13:39:06;;;;;;;2.78;1.60;;;;;;;;;;5094800;28;20020;-67
2023/03/28 13:41:54;;;;;;;3.17;1.90;;;;;;;;;;5094728;28;20036;-67
2023/03/28 13:44:41;;;;;;;3.67;1.90;;;;;;;;;;5086807;28;20029;-66
2023/03/28 13:47:19;;;;;;;3.53;1.50;;;;;;;;;;5072469;28;20059;-69
2023/03/28 13:49:53;;;;;;;2.97;1.73;;;;;;;;;;5079955;28;20047;-69
2023/03/28 13:52:22;;;;;;;6.00;2.15;;;;;;;;;;5076340;28;20368;-67
2023/03/28 13:54:54;;;;;;;2.47;1.90;;;;;;;;;;5094391;28;20464;-66
2023/03/28 13:57:22;;;;;;;2.90;1.80;;;;;;;;;;5094801;28;20051;-65
2023/03/28 13:59:57;;;;;;;4.68;1.88;;;;;;;;;;5094587;28;20036;-67
2023/03/28 14:02:29;;;;;;;2.28;1.85;;;;;;;;;;5094297;28;20483;-70
2023/03/28 14:05:03;;;;;;;3.22;1.67;;;;;;;;;;5094459;28;20027;-70
2023/03/28 14:07:29;;;;;;;2.83;1.80;;;;;;;;;;5094510;28;20384;-67
2023/03/28 14:09:56;;;;;;;4.43;2.45;;;;;;;;;;5094099;28;20358;-67
2023/03/28 14:12:26;;;;;;;3.10;1.70;;;;;;;;;;5094332;28;20123;-71
2023/03/28 14:14:55;;;;;;;1.92;1.73;;;;;;;;;;5093101;28;20387;-68
2023/03/28 14:17:35;;;;;;;3.92;2.13;;;;;;;;;;5094012;28;20106;-66
2023/03/28 14:20:04;;;;;;;6.78;2.15;;;;;;;;;;5093995;28;20028;-64
2023/03/28 14:22:35;;;;;;;5.60;2.53;;;;;;;;;;5057311;28;20524;-64
2023/03/28 14:25:10;;;;;;;4.88;2.20;;;;;;;;;;5052193;28;20025;-66
2023/03/28 14:27:39;;;;;;;5.13;2.10;;;;;;;;;;5052740;28;20380;-59
2023/03/28 14:30:27;;;;;;;12.50;2.30;;;;;;;;;;5053040;28;20345;-68
2023/03/28 14:33:09;;;;;;;5.95;2.17;;;;;;;;;;5051893;28;20115;-61
2023/03/28 14:35:37;;;;;;;5.10;2.10;;;;;;;;;;5051174;28;20025;-70
2023/03/28 14:38:12;;;;;;;8.40;2.47;;;;;;;;;;5053391;28;20496;-67
2023/03/28 14:40:40;;;;;;;6.07;2.28;;;;;;;;;;5053300;28;20033;-60
2023/03/28 14:43:09;;;;;;;9.02;2.30;;;;;;;;;;5052036;28;20025;-67
2023/03/28 14:45:37;;;;;;;5.35;2.30;;;;;;;;;;5051930;28;20025;-62
2023/03/28 14:48:05;;;;;;;4.18;2.17;;;;;;;;;;5052788;28;20069;-60
2023/03/28 14:50:35;;;;;;;5.68;2.85;;;;;;;;;;5053212;28;20032;-60
2023/03/28 14:53:06;;;;;;;5.63;2.33;;;;;;;;;;5053103;28;20025;-67
2023/03/28 14:55:33;;;;;;;5.65;2.20;;;;;;;;;;5053156;28;20082;-70
2023/03/28 14:58:01;;;;;;;7.03;2.40;;;;;;;;;;5051783;28;20036;-68
2023/03/28 15:00:46;;;;;;;6.15;2.60;;;;;;;;;;5052916;28;20543;-62
2023/03/28 15:03:18;;;;;;;5.53;2.50;;;;;;;;;;5053042;28;20036;-68
2023/03/28 15:05:48;;;;;;;3.88;2.30;;;;;;;;;;5052390;28;20025;-60
2023/03/28 15:08:32;;;;;;;4.70;2.60;;;;;;;;;;5052881;28;20059;-60
2023/03/28 15:11:02;;;;;;;5.90;2.70;;;;;;;;;;5052869;28;20028;-68
2023/03/28 15:13:40;;;;;;;5.05;2.85;;;;;;;;;;5053016;28;20502;-69
2023/03/28 15:16:07;;;;;;;4.93;2.33;;;;;;;;;;5051472;28;20029;-60